Impacts TAF Board
For situational awareness. Not to be used for flight planning purposes.
IDs:

KGEG - Spokane Intl, WA, US

Issued at 0538 UTC 07 Dec 2022
Updated at 0914 UTC 07 Dec 2022
Potential Impact None Slight Moderate High
Time0853Z 07/10Z 07/11Z 07/12Z 07/13Z 07/14Z 07/15Z 07/16Z 07/17Z 07/18Z 07/19Z 07/20Z 07/21Z 07/22Z>>
Type OBS PRVL PRVL PRVL PRVL PRVL PRVL PRVL PRVL PRVL PRVL PRVL PRVL PRVL
VIS 0.25 0.75 0.75 0.75 0.75 0.75 0.75 0.75 0.75 0.75 1 1 1 1
CIG 1 2 2 2 2 2 2 2 2 2 4 4 4 4
Cover OVX OVC OVC OVC OVC OVC OVC OVC OVC OVC OVC OVC OVC OVC
FltCat LIFR LIFR LIFR LIFR LIFR LIFR LIFR LIFR LIFR LIFR LIFR LIFR LIFR LIFR
WX FZFG -FZDZ -FZDZ -FZDZ -FZDZ -FZDZ -FZDZ -FZDZ -FZDZ -FZDZ BR BR BR BR
WDir 360 VRB VRB VRB VRB VRB VRB VRB VRB VRB 100 100 100 100
WSpd 3 2 2 2 2 2 2 2 2 2 4 4 4 4
WGst -- -- -- -- -- -- -- -- -- -- -- -- -- --
WSHgt -- -- -- -- -- -- -- -- -- -- -- -- -- --
WSDir -- -- -- -- -- -- -- -- -- -- -- -- -- --
WSSpd -- -- -- -- -- -- -- -- -- -- -- -- -- --
Raw TAF
KGEG 070538Z 0706/0806 VRB02KT 3/4SM -FZDZ OVC002
  FM071900 10004KT 1SM BR OVC004
  FM080100 04003KT 3/4SM BR OVC004


Raw METAR
KGEG 070853Z 36003KT 1/4SM R21/5000V6000FT FZFG VV001 M05/M06 A3009 RMK AO2 SNB30E53 SLP220 P0000 60000 I1000 I3000 T10501061 51006
KGEG 070830Z 00000KT 1/4SM R21/3500V4500FT -SN FZFG VV002 M05/M07 A3009 RMK AO2 SFC VIS 1/2 SNB30 P0000 I1000 T10501067
KGEG 070753Z 04003KT 1/4SM R21/3000V3500FT FZFG VV002 M05/M07 A3009 RMK AO2 SFC VIS 1/2 SNE08B36E53 SLP218 P0000 I1000 T10501067 410441061
KGEG 070736Z 36004KT 1/4SM R21/3500FT -SN FZFG VV001 M05/M07 A3009 RMK AO2 SFC VIS 1/2 SNE08B36 P0000 I1000 T10501067
KGEG 070708Z 02004KT 1/4SM R21/4500V5500FT FZFG VV001 M05/M07 A3009 RMK AO2 SFC VIS 1/2 SNE08 P0000 T10501067
KGEG 070653Z 00000KT 1/4SM R21/4000V5000FT -SN BR VV002 M05/M07 A3008 RMK AO2 SFC VIS 3/4 FZDZE41SNB41 SLP216 P0000 I1000 T10501067
KGEG 070641Z 00000KT 1/4SM R21/3500V5000FT -SN BR OVC003 M05/M07 A3008 RMK AO2 SFC VIS 3/4 FZDZE41SNB41 P0000 I1000 T10501067

METAR Board
Radar Display
Forecast Discussion
For situational awareness. Not to be used for flight planning purposes.